sensor_id;sensor_type;location;lat;lon;timestamp;P1;durP1;ratioP1;P2;durP2;ratioP2
75971;SDS011;64651;47.540;19.088;2023-11-19T15:52:28;18.85;;;7.93;;
75971;SDS011;64651;47.540;19.088;2023-11-19T15:57:31;18.20;;;7.63;;
75971;SDS011;64651;47.540;19.088;2023-11-19T16:02:34;18.48;;;7.80;;
75971;SDS011;64651;47.540;19.088;2023-11-19T16:07:37;18.30;;;6.97;;
75971;SDS011;64651;47.540;19.088;2023-11-19T16:12:39;19.87;;;8.00;;
75971;SDS011;64651;47.540;19.088;2023-11-19T16:17:42;17.55;;;7.50;;
75971;SDS011;64651;47.540;19.088;2023-11-19T16:22:45;18.43;;;7.50;;
75971;SDS011;64651;47.540;19.088;2023-11-19T16:27:47;17.80;;;7.53;;
75971;SDS011;64651;47.540;19.088;2023-11-19T16:32:53;17.58;;;7.70;;
75971;SDS011;64651;47.540;19.088;2023-11-19T16:38:00;17.13;;;6.93;;
75971;SDS011;64651;47.540;19.088;2023-11-19T16:43:03;21.95;;;8.30;;
75971;SDS011;64651;47.540;19.088;2023-11-19T16:48:05;18.33;;;7.83;;
75971;SDS011;64651;47.540;19.088;2023-11-19T16:53:08;18.45;;;7.65;;
75971;SDS011;64651;47.540;19.088;2023-11-19T16:58:11;20.25;;;7.97;;
75971;SDS011;64651;47.540;19.088;2023-11-19T17:03:13;19.27;;;8.03;;
75971;SDS011;64651;47.540;19.088;2023-11-19T17:08:15;18.42;;;7.97;;
75971;SDS011;64651;47.540;19.088;2023-11-19T17:13:17;21.67;;;8.17;;
75971;SDS011;64651;47.540;19.088;2023-11-19T17:18:23;18.05;;;8.13;;
75971;SDS011;64651;47.540;19.088;2023-11-19T17:23:26;19.42;;;8.13;;
75971;SDS011;64651;47.540;19.088;2023-11-19T17:28:29;19.13;;;8.67;;
75971;SDS011;64651;47.540;19.088;2023-11-19T17:33:31;22.08;;;9.50;;
75971;SDS011;64651;47.540;19.088;2023-11-19T17:38:33;21.00;;;9.40;;
75971;SDS011;64651;47.540;19.088;2023-11-19T17:43:38;21.58;;;10.52;;
75971;SDS011;64651;47.540;19.088;2023-11-19T17:48:40;23.55;;;10.45;;
75971;SDS011;64651;47.540;19.088;2023-11-19T17:53:42;24.63;;;9.63;;
75971;SDS011;64651;47.540;19.088;2023-11-19T17:58:45;23.65;;;10.15;;
75971;SDS011;64651;47.540;19.088;2023-11-19T18:03:47;22.53;;;9.87;;
75971;SDS011;64651;47.540;19.088;2023-11-19T18:08:50;23.33;;;10.13;;
75971;SDS011;64651;47.540;19.088;2023-11-19T18:13:52;25.33;;;10.55;;
75971;SDS011;64651;47.540;19.088;2023-11-19T18:18:56;22.93;;;10.07;;
75971;SDS011;64651;47.540;19.088;2023-11-19T18:23:58;24.67;;;10.60;;
75971;SDS011;64651;47.540;19.088;2023-11-19T18:29:01;23.73;;;10.30;;
75971;SDS011;64651;47.540;19.088;2023-11-19T18:34:03;28.10;;;10.80;;
75971;SDS011;64651;47.540;19.088;2023-11-19T18:39:05;24.35;;;10.77;;
75971;SDS011;64651;47.540;19.088;2023-11-19T18:44:12;25.10;;;10.60;;
75971;SDS011;64651;47.540;19.088;2023-11-19T18:49:15;23.00;;;9.23;;
75971;SDS011;64651;47.540;19.088;2023-11-19T18:54:17;25.27;;;10.43;;
75971;SDS011;64651;47.540;19.088;2023-11-19T18:59:23;22.13;;;9.48;;
75971;SDS011;64651;47.540;19.088;2023-11-19T19:04:25;22.48;;;9.20;;
75971;SDS011;64651;47.540;19.088;2023-11-19T19:09:30;21.23;;;9.47;;
75971;SDS011;64651;47.540;19.088;2023-11-19T19:14:32;23.60;;;10.02;;
75971;SDS011;64651;47.540;19.088;2023-11-19T19:19:35;25.93;;;9.93;;
75971;SDS011;64651;47.540;19.088;2023-11-19T19:24:37;23.42;;;10.10;;
75971;SDS011;64651;47.540;19.088;2023-11-19T19:29:39;23.73;;;11.25;;
75971;SDS011;64651;47.540;19.088;2023-11-19T19:34:41;20.90;;;9.43;;
75971;SDS011;64651;47.540;19.088;2023-11-19T19:39:44;24.10;;;11.23;;
75971;SDS011;64651;47.540;19.088;2023-11-19T19:44:48;20.40;;;9.87;;
75971;SDS011;64651;47.540;19.088;2023-11-19T19:49:51;21.75;;;9.48;;
75971;SDS011;64651;47.540;19.088;2023-11-19T19:54:53;23.67;;;9.25;;
75971;SDS011;64651;47.540;19.088;2023-11-19T19:59:55;19.90;;;9.10;;
75971;SDS011;64651;47.540;19.088;2023-11-19T20:04:57;24.50;;;10.95;;
75971;SDS011;64651;47.540;19.088;2023-11-19T20:10:02;23.87;;;11.17;;
75971;SDS011;64651;47.540;19.088;2023-11-19T20:15:05;26.58;;;11.60;;
75971;SDS011;64651;47.540;19.088;2023-11-19T20:20:08;27.20;;;12.60;;
75971;SDS011;64651;47.540;19.088;2023-11-19T20:25:13;32.83;;;15.27;;
75971;SDS011;64651;47.540;19.088;2023-11-19T20:30:16;30.75;;;14.90;;
75971;SDS011;64651;47.540;19.088;2023-11-19T20:35:18;33.90;;;17.40;;
75971;SDS011;64651;47.540;19.088;2023-11-19T20:40:20;33.17;;;17.23;;
75971;SDS011;64651;47.540;19.088;2023-11-19T20:45:22;34.13;;;18.27;;
75971;SDS011;64651;47.540;19.088;2023-11-19T20:50:28;32.80;;;16.60;;
75971;SDS011;64651;47.540;19.088;2023-11-19T20:55:32;32.28;;;15.23;;
75971;SDS011;64651;47.540;19.088;2023-11-19T21:00:35;32.20;;;15.97;;
75971;SDS011;64651;47.540;19.088;2023-11-19T21:05:39;31.75;;;15.65;;
75971;SDS011;64651;47.540;19.088;2023-11-19T21:10:41;34.72;;;16.37;;
75971;SDS011;64651;47.540;19.088;2023-11-19T21:15:44;30.37;;;14.93;;
75971;SDS011;64651;47.540;19.088;2023-11-19T21:20:59;33.05;;;15.20;;
75971;SDS011;64651;47.540;19.088;2023-11-19T21:26:01;31.53;;;16.00;;
75971;SDS011;64651;47.540;19.088;2023-11-19T21:31:05;31.02;;;15.13;;
75971;SDS011;64651;47.540;19.088;2023-11-19T21:36:08;46.05;;;20.17;;
75971;SDS011;64651;47.540;19.088;2023-11-19T21:41:12;36.20;;;16.33;;
75971;SDS011;64651;47.540;19.088;2023-11-19T21:46:15;32.22;;;16.17;;
75971;SDS011;64651;47.540;19.088;2023-11-19T21:51:17;30.97;;;14.90;;
75971;SDS011;64651;47.540;19.088;2023-11-19T21:56:19;33.35;;;15.60;;
75971;SDS011;64651;47.540;19.088;2023-11-19T22:01:21;33.47;;;15.70;;
75971;SDS011;64651;47.540;19.088;2023-11-19T22:06:24;31.73;;;14.70;;
75971;SDS011;64651;47.540;19.088;2023-11-19T22:11:26;28.60;;;13.15;;
75971;SDS011;64651;47.540;19.088;2023-11-19T22:16:29;28.57;;;12.93;;
75971;SDS011;64651;47.540;19.088;2023-11-19T22:21:32;31.00;;;14.18;;
75971;SDS011;64651;47.540;19.088;2023-11-19T22:26:35;42.65;;;20.80;;
75971;SDS011;64651;47.540;19.088;2023-11-19T22:31:39;39.27;;;18.40;;
75971;SDS011;64651;47.540;19.088;2023-11-19T22:36:44;36.53;;;17.75;;
75971;SDS011;64651;47.540;19.088;2023-11-19T22:41:49;39.00;;;19.40;;
75971;SDS011;64651;47.540;19.088;2023-11-19T22:46:51;42.85;;;20.37;;
75971;SDS011;64651;47.540;19.088;2023-11-19T22:51:55;41.97;;;19.50;;
75971;SDS011;64651;47.540;19.088;2023-11-19T22:56:58;41.40;;;18.57;;
75971;SDS011;64651;47.540;19.088;2023-11-19T23:02:03;38.05;;;18.42;;
75971;SDS011;64651;47.540;19.088;2023-11-19T23:07:08;35.80;;;17.53;;
75971;SDS011;64651;47.540;19.088;2023-11-19T23:12:10;34.25;;;16.62;;
75971;SDS011;64651;47.540;19.088;2023-11-19T23:17:12;37.03;;;17.40;;
75971;SDS011;64651;47.540;19.088;2023-11-19T23:22:19;38.73;;;18.33;;
75971;SDS011;64651;47.540;19.088;2023-11-19T23:27:24;38.72;;;17.73;;
75971;SDS011;64651;47.540;19.088;2023-11-19T23:32:26;37.47;;;18.03;;
75971;SDS011;64651;47.540;19.088;2023-11-19T23:37:29;40.75;;;18.60;;
75971;SDS011;64651;47.540;19.088;2023-11-19T23:42:31;40.38;;;19.58;;
75971;SDS011;64651;47.540;19.088;2023-11-19T23:47:34;41.87;;;19.70;;
75971;SDS011;64651;47.540;19.088;2023-11-19T23:52:36;43.42;;;18.15;;
75971;SDS011;64651;47.540;19.088;2023-11-19T23:57:38;40.13;;;19.43;;
